Time;durP1;ratioP1;P1;durP2;ratioP2;P2;SDS_P1;SDS_P2;PMS_P1;PMS_P2;Temp;Humidity;BMP_temperature;BMP_pressure;BME280_temperature;BME280_humidity;BME280_pressure;Samples;Min_cycle;Max_cycle;Signal;HPM_P1;HPM_P2
2021/04/16 00:00:36;;;;;;;4.60;3.10;;;4.80;87.50;;;;;;4979863;28;20886;-82
2021/04/16 00:03:03;;;;;;;7.60;3.38;;;;;;;;;;4977436;28;20042;-84
2021/04/16 00:05:28;;;;;;;8.68;3.70;;;;;;;;;;4974703;28;20040;-82
2021/04/16 00:07:54;;;;;;;6.05;3.10;;;4.80;87.40;;;;;;4971786;28;20038;-84
2021/04/16 00:10:34;;;;;;;7.43;3.60;;;4.80;88.20;;;;;;4975817;28;20040;-81
2021/04/16 00:13:00;;;;;;;9.45;3.90;;;4.80;88.30;;;;;;4969762;28;20034;-80
2021/04/16 00:15:28;;;;;;;7.13;3.15;;;5.00;88.50;;;;;;4972609;28;20026;-85
2021/04/16 00:17:54;;;;;;;6.75;3.17;;;8.20;90.20;;;;;;4986212;28;20042;-84
2021/04/16 00:20:23;;;;;;;7.90;4.00;;;4.80;87.00;;;;;;4975980;28;20495;-83
2021/04/16 00:22:49;;;;;;;7.30;3.40;;;5.40;87.90;;;;;;4978394;28;20038;-83
2021/04/16 00:25:18;;;;;;;6.80;3.15;;;5.00;88.70;;;;;;4972129;28;20038;-85
2021/04/16 00:27:44;;;;;;;5.50;2.63;;;4.80;88.40;;;;;;4970799;28;20066;-83
2021/04/16 00:30:11;;;;;;;5.63;2.13;;;4.70;86.50;;;;;;4975032;28;20302;-83
2021/04/16 00:32:37;;;;;;;4.10;2.38;;;4.70;86.40;;;;;;4984046;28;20033;-86
2021/04/16 00:35:04;;;;;;;5.70;2.60;;;4.80;85.40;;;;;;4975355;28;20022;-83
2021/04/16 00:37:30;;;;;;;7.00;2.50;;;4.80;85.90;;;;;;4976010;28;20050;-81
2021/04/16 00:39:56;;;;;;;5.38;2.80;;;;;;;;;;4974438;28;20059;-80
2021/04/16 00:42:22;;;;;;;5.20;3.40;;;;;;;;;;4970936;28;20030;-83
2021/04/16 00:44:50;;;;;;;4.82;2.45;;;4.70;86.80;;;;;;4986893;28;20026;-83
2021/04/16 00:47:20;;;;;;;4.43;2.20;;;4.80;86.00;;;;;;4971401;28;20030;-82
2021/04/16 00:49:49;;;;;;;4.83;2.27;;;5.60;86.90;;;;;;4970646;28;20385;-82
2021/04/16 00:52:25;;;;;;;4.13;2.25;;;4.90;85.40;;;;;;4992493;28;20273;-83
2021/04/16 00:54:51;;;;;;;4.60;2.40;;;4.80;85.80;;;;;;4977464;28;20030;-81
2021/04/16 00:57:17;;;;;;;6.90;2.95;;;4.90;85.10;;;;;;4981195;28;20038;-83
2021/04/16 00:59:54;;;;;;;4.78;2.42;;;5.00;84.60;;;;;;4987824;28;20038;-80
2021/04/16 01:02:21;;;;;;;3.67;2.30;;;5.00;84.40;;;;;;4978151;28;20065;-84
2021/04/16 01:04:47;;;;;;;4.47;2.30;;;5.00;85.00;;;;;;4981596;28;20061;-84
2021/04/16 01:07:14;;;;;;;6.22;2.50;;;5.00;84.40;;;;;;4997107;28;20018;-86
2021/04/16 01:09:40;;;;;;;3.38;2.10;;;;;;;;;;4993427;28;20058;-83
2021/04/16 01:12:10;;;;;;;4.25;2.03;;;5.10;84.20;;;;;;5010839;28;20084;-84
2021/04/16 01:14:38;;;;;;;4.40;2.33;;;5.10;84.60;;;;;;4986339;28;20177;-82
2021/04/16 01:17:09;;;;;;;4.43;2.20;;;5.10;84.60;;;;;;4972900;28;20025;-84
2021/04/16 01:19:42;;;;;;;3.75;2.30;;;6.10;85.40;;;;;;4974546;28;20023;-83
2021/04/16 01:22:13;;;;;;;5.15;2.30;;;4.90;84.90;;;;;;4979798;28;20007;-83
2021/04/16 01:24:38;;;;;;;;;;;6.10;86.10;;;;;;4978800;28;20120;-84
2021/04/16 01:27:11;;;;;;;4.00;2.38;;;5.00;85.00;;;;;;4971644;28;19970;-83
2021/04/16 01:29:40;;;;;;;6.47;2.53;;;5.00;84.90;;;;;;4956923;28;20488;-82
2021/04/16 01:32:07;;;;;;;4.00;2.10;;;6.20;86.00;;;;;;4979063;28;20026;-83
2021/04/16 01:34:33;;;;;;;5.47;2.70;;;5.00;85.30;;;;;;4979274;28;20400;-84
2021/04/16 01:36:59;;;;;;;3.92;2.40;;;5.00;85.20;;;;;;5007491;23;20042;-76
2021/04/16 01:39:28;;;;;;;5.93;2.78;;;4.90;85.60;;;;;;4993038;28;20052;-77
2021/04/16 01:41:55;;;;;;;4.47;2.42;;;4.80;85.90;;;;;;4987576;28;20528;-79
2021/04/16 01:44:28;;;;;;;5.40;3.03;;;4.80;86.30;;;;;;4992027;28;20029;-78
2021/04/16 01:47:07;;;;;;;5.22;3.05;;;4.80;86.50;;;;;;5003792;28;20026;-83
2021/04/16 01:49:39;;;;;;;4.70;2.50;;;4.80;86.90;;;;;;4985103;28;20095;-78
2021/04/16 01:52:08;;;;;;;5.55;2.60;;;4.70;86.80;;;;;;4987023;28;20054;-76
2021/04/16 01:54:38;;;;;;;5.28;2.90;;;4.80;87.00;;;;;;4985037;28;20448;-76
2021/04/16 01:57:14;;;;;;;5.18;2.70;;;4.80;87.40;;;;;;4981619;28;20096;-77
2021/04/16 01:59:42;;;;;;;3.83;2.33;;;4.80;87.00;;;;;;4984632;28;20036;-77
2021/04/16 02:02:11;;;;;;;3.83;2.22;;;4.80;87.20;;;;;;5000309;28;20030;-75
2021/04/16 02:04:37;;;;;;;3.97;2.60;;;4.80;87.50;;;;;;4988279;28;20491;-77
2021/04/16 02:07:03;;;;;;;3.70;2.28;;;4.80;87.00;;;;;;4984428;28;20037;-77
2021/04/16 02:09:33;;;;;;;5.07;2.38;;;4.70;86.90;;;;;;4989678;28;20045;-78
2021/04/16 02:11:59;;;;;;;5.88;2.45;;;4.80;87.10;;;;;;4997440;28;20062;-76
2021/04/16 02:14:27;;;;;;;5.50;2.50;;;4.80;87.50;;;;;;4976875;28;20046;-77
2021/04/16 02:16:58;;;;;;;4.53;2.65;;;4.80;87.50;;;;;;4982624;28;20504;-76
2021/04/16 02:19:24;;;;;;;3.72;2.20;;;4.80;87.60;;;;;;5000925;28;20052;-78
2021/04/16 02:21:50;;;;;;;4.70;2.40;;;4.80;86.80;;;;;;4996948;28;20100;-75
2021/04/16 02:24:18;;;;;;;4.40;2.65;;;4.80;87.30;;;;;;5005877;28;20516;-76
2021/04/16 02:26:44;;;;;;;3.90;2.42;;;4.80;87.40;;;;;;5003774;28;20033;-77
2021/04/16 02:29:13;;;;;;;5.15;2.40;;;4.80;87.40;;;;;;5000772;28;20042;-80
2021/04/16 02:31:42;;;;;;;5.10;2.60;;;4.80;87.50;;;;;;4978684;28;20107;-76
2021/04/16 02:34:09;;;;;;;4.78;3.05;;;4.80;86.90;;;;;;4994861;28;20025;-77
2021/04/16 02:36:35;;;;;;;4.55;2.70;;;4.90;87.30;;;;;;5007904;28;20108;-75
2021/04/16 02:39:01;;;;;;;4.05;2.40;;;4.80;87.50;;;;;;4990264;28;20025;-76
2021/04/16 02:41:26;;;;;;;5.38;2.80;;;4.90;87.80;;;;;;4987794;28;20034;-77
2021/04/16 02:43:52;;;;;;;4.53;2.40;;;4.80;88.00;;;;;;4999280;28;20029;-78
2021/04/16 02:46:18;;;;;;;5.60;2.60;;;4.80;88.60;;;;;;4986405;28;20278;-77
2021/04/16 02:48:43;;;;;;;6.32;3.40;;;4.70;88.30;;;;;;5003706;28;20407;-76
2021/04/16 02:51:09;;;;;;;4.65;2.42;;;4.70;88.60;;;;;;4987383;28;20029;-80
2021/04/16 02:53:34;;;;;;;9.60;3.15;;;4.70;88.50;;;;;;5000059;28;20026;-78
2021/04/16 02:56:00;;;;;;;6.82;2.50;;;4.70;88.80;;;;;;4990067;28;20094;-81
2021/04/16 02:58:26;;;;;;;5.47;3.08;;;4.70;89.00;;;;;;4990019;28;20382;-77
2021/04/16 03:00:54;;;;;;;4.32;2.47;;;4.70;89.00;;;;;;4998304;28;20033;-80
2021/04/16 03:03:22;;;;;;;5.70;2.80;;;4.70;88.90;;;;;;4997369;28;20038;-77
2021/04/16 03:05:47;;;;;;;6.15;2.90;;;4.70;89.30;;;;;;4979576;28;20404;-81
2021/04/16 03:08:13;;;;;;;6.05;2.80;;;4.70;89.00;;;;;;4982398;28;20088;-79
2021/04/16 03:10:39;;;;;;;4.95;2.78;;;4.70;89.10;;;;;;5006150;28;20061;-76
2021/04/16 03:13:05;;;;;;;4.72;3.00;;;4.70;89.50;;;;;;4979026;28;20026;-78
2021/04/16 03:15:34;;;;;;;9.75;3.25;;;4.70;90.00;;;;;;4994784;28;20439;-76
2021/04/16 03:18:00;;;;;;;4.55;3.03;;;4.60;90.00;;;;;;4984488;28;20034;-76
2021/04/16 03:20:26;;;;;;;4.70;2.90;;;4.60;90.20;;;;;;4983134;28;20063;-77
2021/04/16 03:22:52;;;;;;;5.55;2.63;;;4.60;90.10;;;;;;4974642;28;20417;-76
2021/04/16 03:25:18;;;;;;;4.75;3.10;;;4.60;90.30;;;;;;4981613;28;20497;-80
2021/04/16 03:27:44;;;;;;;6.63;2.85;;;;;;;;;;5000942;28;20030;-75
2021/04/16 03:30:15;;;;;;;7.40;3.15;;;4.60;90.40;;;;;;4986086;28;20064;-77
2021/04/16 03:32:43;;;;;;;4.95;3.40;;;4.60;90.50;;;;;;4978438;28;20043;-78
2021/04/16 03:35:09;;;;;;;4.63;3.05;;;4.50;90.70;;;;;;4998704;28;20034;-79
2021/04/16 03:37:35;;;;;;;5.18;2.90;;;4.50;90.60;;;;;;4975347;28;20255;-77
2021/04/16 03:40:01;;;;;;;5.50;2.97;;;;;;;;;;4995965;28;21170;-76
2021/04/16 03:42:26;;;;;;;6.50;3.25;;;4.50;90.80;;;;;;4979418;28;20121;-76
2021/04/16 03:44:54;;;;;;;5.78;3.25;;;4.50;91.00;;;;;;4978470;28;20132;-75
2021/04/16 03:47:19;;;;;;;4.68;3.35;;;4.50;91.20;;;;;;5001500;28;20029;-75
2021/04/16 03:49:45;;;;;;;5.80;3.30;;;6.10;91.60;;;;;;4980451;28;20030;-78
2021/04/16 03:52:12;;;;;;;4.65;2.95;;;4.50;91.10;;;;;;4994758;28;20034;-77
2021/04/16 03:54:39;;;;;;;5.82;3.13;;;4.50;91.00;;;;;;4976395;28;20022;-76
2021/04/16 03:57:07;;;;;;;6.18;3.17;;;4.50;91.00;;;;;;4990389;28;20440;-76
2021/04/16 03:59:33;;;;;;;7.82;3.75;;;4.50;90.80;;;;;;5004658;28;20033;-75
2021/04/16 04:01:59;;;;;;;6.40;3.63;;;4.50;91.00;;;;;;4991025;28;20025;-76
2021/04/16 04:04:24;;;;;;;8.05;3.63;;;4.50;91.20;;;;;;4999587;28;20029;-76
2021/04/16 04:06:50;;;;;;;5.95;3.53;;;4.50;91.30;;;;;;4982414;28;20035;-76
2021/04/16 04:09:17;;;;;;;5.18;3.10;;;4.50;91.40;;;;;;4989313;28;20037;-75
2021/04/16 04:11:42;;;;;;;6.25;3.40;;;4.60;91.20;;;;;;4981165;28;20097;-78
2021/04/16 04:14:08;;;;;;;4.85;3.58;;;4.60;91.40;;;;;;4982902;28;20109;-76
2021/04/16 04:17:06;;;;;;;5.47;3.60;;;4.50;91.10;;;;;;4985202;28;20033;-77
2021/04/16 04:19:36;;;;;;;6.47;3.65;;;4.60;91.20;;;;;;4954621;28;20038;-75
2021/04/16 04:22:03;;;;;;;7.32;3.78;;;4.60;91.20;;;;;;5001739;28;20843;-76
2021/04/16 04:24:29;;;;;;;7.28;3.67;;;4.60;91.40;;;;;;4987462;28;20025;-78
2021/04/16 04:26:55;;;;;;;6.70;3.95;;;4.60;91.60;;;;;;4992569;28;20041;-77
2021/04/16 04:29:23;;;;;;;6.78;4.10;;;4.60;91.50;;;;;;5002293;28;20112;-78
2021/04/16 04:31:50;;;;;;;6.38;4.20;;;4.60;91.40;;;;;;4985191;28;20022;-76
2021/04/16 04:34:35;;;;;;;9.88;4.25;;;4.60;91.60;;;;;;4975447;28;20208;-76
2021/04/16 04:37:02;;;;;;;10.30;4.35;;;4.60;91.70;;;;;;4994221;28;20030;-77
2021/04/16 04:39:33;;;;;;;6.55;4.03;;;4.60;91.70;;;;;;4982034;28;20034;-77
2021/04/16 04:42:01;;;;;;;7.97;3.80;;;4.60;91.60;;;;;;5001507;28;20061;-76
2021/04/16 04:44:27;;;;;;;7.35;4.05;;;4.50;91.70;;;;;;4984757;28;20041;-77
2021/04/16 04:46:52;;;;;;;8.60;4.00;;;4.50;92.20;;;;;;4989773;28;20041;-76
2021/04/16 04:49:20;;;;;;;9.27;4.38;;;4.50;92.10;;;;;;4991104;28;20103;-76
2021/04/16 04:51:47;;;;;;;6.55;4.25;;;4.50;91.90;;;;;;4998846;28;20212;-77
2021/04/16 04:54:16;;;;;;;7.30;4.22;;;4.50;91.90;;;;;;5009178;28;20022;-79
2021/04/16 04:56:44;;;;;;;11.38;4.18;;;4.60;92.30;;;;;;4992366;28;20030;-76
2021/04/16 04:59:10;;;;;;;9.73;4.75;;;4.50;92.40;;;;;;5006384;28;20021;-79
2021/04/16 05:01:35;;;;;;;6.80;4.45;;;4.50;92.30;;;;;;4989250;28;20041;-76
2021/04/16 05:04:01;;;;;;;7.68;3.75;;;4.50;92.10;;;;;;4986902;28;20030;-76
2021/04/16 05:06:27;;;;;;;5.30;4.18;;;;;;;;;;4986873;28;20030;-76
2021/04/16 05:08:53;;;;;;;8.45;4.60;;;4.60;91.90;;;;;;4990978;28;20101;-76
2021/04/16 05:11:19;;;;;;;6.25;4.30;;;4.60;92.10;;;;;;4991972;28;20125;-75
2021/04/16 05:13:50;;;;;;;7.13;4.50;;;4.60;91.60;;;;;;5000056;28;20081;-75
2021/04/16 05:16:16;;;;;;;10.13;4.35;;;4.70;91.70;;;;;;5005351;28;20034;-77
2021/04/16 05:18:44;;;;;;;6.90;3.90;;;4.60;91.90;;;;;;4992333;28;20034;-80
2021/04/16 05:21:10;;;;;;;7.93;4.13;;;4.70;91.70;;;;;;5013736;28;20038;-76
2021/04/16 05:23:35;;;;;;;6.55;4.30;;;4.70;91.40;;;;;;4990640;28;20049;-75
2021/04/16 05:26:01;;;;;;;7.28;4.25;;;;;;;;;;4986619;28;20041;-73
2021/04/16 05:28:27;;;;;;;8.43;4.32;;;4.80;91.40;;;;;;4987737;28;20117;-76
2021/04/16 05:30:53;;;;;;;8.00;5.00;;;4.70;91.60;;;;;;5005845;28;20038;-76
2021/04/16 05:33:19;;;;;;;6.38;4.32;;;4.70;91.60;;;;;;4985289;28;20029;-76
2021/04/16 05:35:44;;;;;;;6.53;4.20;;;4.70;91.80;;;;;;4985497;28;20030;-76
2021/04/16 05:38:13;;;;;;;7.25;4.18;;;4.70;91.70;;;;;;4985156;28;20038;-77
2021/04/16 05:40:40;;;;;;;8.90;4.22;;;6.00;92.20;;;;;;4982779;28;20084;-74
2021/04/16 05:43:06;;;;;;;6.63;4.32;;;4.90;91.50;;;;;;4988908;28;20036;-75
2021/04/16 05:45:31;;;;;;;8.68;4.57;;;4.90;91.80;;;;;;4993335;28;20026;-73
2021/04/16 05:47:57;;;;;;;6.25;3.83;;;5.00;91.30;;;;;;4981526;28;20035;-76
2021/04/16 05:50:23;;;;;;;7.85;4.60;;;5.40;91.50;;;;;;4998345;28;20065;-75
2021/04/16 05:52:49;;;;;;;8.25;5.22;;;5.00;91.30;;;;;;4992842;28;20033;-75
2021/04/16 05:55:15;;;;;;;6.47;4.72;;;5.00;91.60;;;;;;4985562;28;20044;-75
2021/04/16 05:57:41;;;;;;;6.85;4.45;;;5.00;91.50;;;;;;4985905;28;20508;-75
2021/04/16 06:00:10;;;;;;;7.35;4.40;;;5.20;91.00;;;;;;4983419;28;20059;-73
2021/04/16 06:02:41;;;;;;;7.25;4.72;;;5.20;91.20;;;;;;5000351;28;20033;-75
2021/04/16 06:05:14;;;;;;;6.00;4.22;;;6.20;91.50;;;;;;4980849;28;20042;-75
2021/04/16 06:07:40;;;;;;;6.60;4.22;;;;;;;;;;4970467;28;20188;-75
2021/04/16 06:10:09;;;;;;;8.35;4.15;;;5.60;90.60;;;;;;4984355;28;20037;-74
2021/04/16 06:12:37;;;;;;;6.80;4.65;;;5.60;91.30;;;;;;4981057;28;20045;-75
2021/04/16 06:15:08;;;;;;;5.55;4.15;;;5.60;90.90;;;;;;4985671;28;20026;-75
2021/04/16 06:17:35;;;;;;;7.35;4.47;;;;;;;;;;4981570;28;20037;-76
2021/04/16 06:20:01;;;;;;;6.50;4.03;;;;;;;;;;5000187;28;20057;-74
2021/04/16 06:22:27;;;;;;;6.85;4.20;;;5.80;90.60;;;;;;4987105;28;20034;-75
2021/04/16 06:24:53;;;;;;;6.68;4.53;;;;;;;;;;4983666;28;20072;-78
2021/04/16 06:27:19;;;;;;;6.57;4.15;;;;;;;;;;4982073;28;20067;-75
2021/04/16 06:29:45;;;;;;;10.48;4.53;;;;;;;;;;4985438;28;20045;-76
2021/04/16 06:32:14;;;;;;;6.07;3.83;;;6.20;90.90;;;;;;4980192;28;20037;-76
2021/04/16 06:34:40;;;;;;;5.32;3.67;;;;;;;;;;4978481;28;20025;-76
2021/04/16 06:37:06;;;;;;;7.25;4.20;;;;;;;;;;4967353;28;20083;-76
2021/04/16 06:39:32;;;;;;;6.53;4.20;;;6.30;90.90;;;;;;4991764;28;20034;-77
2021/04/16 06:42:00;;;;;;;9.52;4.38;;;6.00;91.30;;;;;;4980960;28;20041;-76
2021/04/16 06:44:29;;;;;;;7.78;4.18;;;6.00;91.60;;;;;;4975481;28;20093;-74
2021/04/16 06:47:02;;;;;;;6.50;4.05;;;6.00;91.80;;;;;;4985404;28;20037;-75
2021/04/16 06:49:31;;;;;;;7.95;4.18;;;6.20;91.60;;;;;;4980940;28;20037;-78
2021/04/16 06:52:02;;;;;;;5.35;3.63;;;6.30;91.20;;;;;;4971544;28;20025;-73
2021/04/16 06:54:40;;;;;;;9.90;4.00;;;6.40;91.00;;;;;;4972966;28;20380;-75
2021/04/16 06:57:21;;;;;;;6.53;3.58;;;6.40;90.70;;;;;;4974867;28;20255;-76
2021/04/16 06:59:56;;;;;;;4.80;3.35;;;6.40;91.00;;;;;;4986737;28;20031;-75
2021/04/16 07:02:31;;;;;;;5.18;3.38;;;6.70;90.40;;;;;;4970911;28;20366;-75
2021/04/16 07:05:02;;;;;;;5.50;3.20;;;6.70;89.80;;;;;;4983143;28;20115;-76
2021/04/16 07:07:38;;;;;;;5.70;3.35;;;7.00;88.60;;;;;;4973543;28;20080;-77
2021/04/16 07:10:25;;;;;;;6.05;3.58;;;7.10;88.20;;;;;;4971619;28;20044;-76
2021/04/16 07:12:52;;;;;;;5.95;3.35;;;7.10;88.10;;;;;;4987098;28;20030;-75
2021/04/16 07:15:22;;;;;;;6.25;3.55;;;7.20;86.90;;;;;;4983465;28;20026;-75
2021/04/16 07:17:49;;;;;;;6.68;3.20;;;;;;;;;;4987757;28;20084;-75
2021/04/16 07:20:23;;;;;;;6.38;3.88;;;7.30;85.70;;;;;;4973387;28;20095;-77
2021/04/16 07:22:53;;;;;;;4.75;3.03;;;7.50;85.10;;;;;;4993290;28;20049;-76
2021/04/16 07:25:38;;;;;;;5.78;3.28;;;7.60;84.00;;;;;;4977784;28;20058;-77
2021/04/16 07:28:15;;;;;;;6.47;3.40;;;;;;;;;;4991238;28;20064;-76
2021/04/16 07:30:50;;;;;;;5.43;3.30;;;7.70;80.00;;;;;;4996379;28;20048;-76
2021/04/16 07:33:31;;;;;;;6.97;3.03;;;;;;;;;;4996153;28;20482;-78
2021/04/16 07:36:23;;;;;;;8.48;3.25;;;7.40;80.00;;;;;;4986858;28;20022;-74
2021/04/16 07:38:59;;;;;;;4.85;3.00;;;7.20;88.20;;;;;;4981392;28;20037;-75
2021/04/16 07:41:28;;;;;;;4.43;3.15;;;6.90;80.70;;;;;;4978408;28;20181;-74
2021/04/16 07:43:57;;;;;;;6.68;3.05;;;6.80;81.40;;;;;;4979182;28;20030;-76
2021/04/16 07:46:26;;;;;;;5.05;2.88;;;6.40;90.50;;;;;;4977120;28;20694;-75
2021/04/16 07:48:52;;;;;;;5.25;2.88;;;;;;;;;;4992858;28;20141;-75
2021/04/16 07:51:30;;;;;;;4.55;2.65;;;6.70;81.40;;;;;;4976760;28;20030;-77
2021/04/16 07:54:10;;;;;;;5.68;3.35;;;;;;;;;;4981647;28;20042;-79
2021/04/16 07:56:36;;;;;;;6.50;3.35;;;;;;;;;;4984398;28;20053;-76
2021/04/16 07:59:05;;;;;;;6.70;3.38;;;;;;;;;;4980811;28;20593;-81
2021/04/16 08:01:32;;;;;;;4.88;2.85;;;;;;;;;;4963940;28;20572;-74
2021/04/16 08:04:01;;;;;;;3.65;2.55;;;;;;;;;;4981573;28;20401;-76
2021/04/16 08:06:27;;;;;;;7.28;3.13;;;;;;;;;;4999973;28;20094;-74
2021/04/16 08:08:53;;;;;;;4.78;3.20;;;;;;;;;;4982091;28;20109;-77
2021/04/16 08:11:25;;;;;;;3.75;2.38;;;7.30;78.50;;;;;;4993562;28;20029;-75
2021/04/16 08:13:54;;;;;;;5.68;3.35;;;7.50;78.10;;;;;;4979276;28;20034;-76
2021/04/16 08:16:20;;;;;;;4.93;2.70;;;;;;;;;;4981868;28;20168;-77
2021/04/16 08:18:48;;;;;;;5.68;2.83;;;;;;;;;;4995623;28;20489;-77
2021/04/16 08:21:19;;;;;;;5.13;3.03;;;7.60;75.60;;;;;;4988694;28;20038;-75
2021/04/16 08:24:08;;;;;;;7.18;3.08;;;;;;;;;;5000398;28;20033;-78
2021/04/16 08:26:39;;;;;;;4.15;2.80;;;;;;;;;;4939913;28;20104;-77
2021/04/16 08:29:04;;;;;;;;;;;7.90;74.10;;;;;;4988507;28;20432;-76
2021/04/16 08:31:34;;;;;;;4.72;2.85;;;;;;;;;;4996560;28;19968;-78
2021/04/16 08:34:06;;;;;;;5.20;2.80;;;;;;;;;;4972308;28;20405;-76
2021/04/16 08:36:36;;;;;;;6.63;3.38;;;;;;;;;;4996403;28;20411;-83
2021/04/16 08:39:02;;;;;;;5.18;3.00;;;;;;;;;;4992395;28;20065;-79
2021/04/16 08:41:31;;;;;;;4.07;2.92;;;;;;;;;;4992187;28;20068;-79
2021/04/16 08:44:01;;;;;;;6.22;3.03;;;8.00;73.10;;;;;;4996417;28;20022;-77
2021/04/16 08:46:41;;;;;;;4.93;2.97;;;8.30;71.40;;;;;;4979935;28;20042;-78
2021/04/16 08:49:12;;;;;;;4.97;2.38;;;;;;;;;;4994640;28;20040;-76
2021/04/16 08:51:44;;;;;;;4.47;2.80;;;8.60;68.50;;;;;;4999598;28;20157;-76
2021/04/16 08:54:24;;;;;;;5.55;2.90;;;;;;;;;;5000018;28;20033;-76
2021/04/16 08:57:04;;;;;;;5.18;2.88;;;8.50;69.10;;;;;;4982734;28;20105;-75
2021/04/16 08:59:34;;;;;;;3.80;2.25;;;8.60;68.30;;;;;;4997708;28;20116;-77
2021/04/16 09:02:17;;;;;;;4.97;2.50;;;8.60;66.20;;;;;;4984625;28;20037;-76
2021/04/16 09:04:52;;;;;;;4.82;2.70;;;8.50;67.00;;;;;;5000795;28;20035;-77
2021/04/16 09:07:41;;;;;;;4.75;3.00;;;8.50;67.20;;;;;;5000814;28;20021;-76
2021/04/16 09:10:16;;;;;;;5.10;3.03;;;8.30;67.50;;;;;;4993331;28;20076;-79
2021/04/16 09:12:42;;;;;;;4.82;3.00;;;;;;;;;;5003981;28;20030;-76
2021/04/16 09:15:19;;;;;;;5.85;2.72;;;8.00;68.10;;;;;;4988722;28;20034;-78
2021/04/16 09:17:54;;;;;;;6.15;2.75;;;7.80;68.60;;;;;;4993064;28;20034;-76
2021/04/16 09:20:20;;;;;;;5.43;3.17;;;;;;;;;;4993688;28;20022;-77
2021/04/16 09:22:46;;;;;;;5.70;3.15;;;;;;;;;;5003053;28;20038;-77
2021/04/16 09:25:43;;;;;;;7.47;3.08;;;8.30;67.90;;;;;;4975818;28;20032;-77
2021/04/16 09:28:21;;;;;;;4.75;3.10;;;8.40;66.90;;;;;;4985949;28;20042;-76
2021/04/16 09:30:48;;;;;;;5.20;2.90;;;;;;;;;;4999463;28;20037;-75
2021/04/16 09:33:26;;;;;;;4.95;2.63;;;;;;;;;;4983292;28;20504;-78
2021/04/16 09:35:58;;;;;;;3.42;2.33;;;;;;;;;;4997588;28;20034;-76
2021/04/16 09:38:24;;;;;;;4.63;2.40;;;;;;;;;;4987882;28;20038;-77
2021/04/16 09:41:08;;;;;;;3.70;2.55;;;;;;;;;;4998083;28;20044;-76
2021/04/16 09:43:47;;;;;;;8.02;3.10;;;;;;;;;;4995338;22;20042;-78
2021/04/16 09:46:45;;;;;;;4.30;2.55;;;;;;;;;;4980696;28;20034;-75
2021/04/16 09:49:26;;;;;;;4.40;2.70;;;;;;;;;;4921805;29;20048;-76
2021/04/16 09:51:54;;;;;;;5.10;2.58;;;;;;;;;;4965736;28;20045;-75
2021/04/16 09:54:23;;;;;;;4.55;2.55;;;;;;;;;;4972019;28;20085;-77
2021/04/16 09:57:02;;;;;;;5.43;2.35;;;;;;;;;;4966503;28;22094;-75
2021/04/16 09:59:28;;;;;;;4.68;2.40;;;;;;;;;;4965155;28;20018;-76
2021/04/16 10:02:13;;;;;;;5.60;2.80;;;;;;;;;;4981604;28;20026;-77
2021/04/16 10:04:55;;;;;;;4.68;2.83;;;8.50;62.50;;;;;;4979636;28;20062;-79
2021/04/16 10:07:47;;;;;;;8.05;2.65;;;8.50;62.10;;;;;;4989720;28;20038;-77
2021/04/16 10:10:27;;;;;;;3.95;2.38;;;8.50;62.00;;;;;;4987857;28;20046;-76
2021/04/16 10:13:06;;;;;;;4.22;2.40;;;;;;;;;;4986118;28;20117;-76
2021/04/16 10:15:37;;;;;;;4.47;2.55;;;8.70;61.40;;;;;;4992887;28;20030;-79
2021/04/16 10:18:06;;;;;;;4.68;2.47;;;;;;;;;;4982383;28;20030;-78
2021/04/16 10:20:39;;;;;;;5.00;2.50;;;8.80;60.70;;;;;;4982141;28;20617;-77
2021/04/16 10:23:24;;;;;;;4.50;2.58;;;8.70;60.90;;;;;;4972212;28;20041;-77
2021/04/16 10:35:00;;;;;;;3.45;2.40;;;;;;;;;;4983066;28;20048;-76
2021/04/16 11:31:46;;;;;;;2.80;1.50;;;;;;;;;;5013492;28;20133;-80
2021/04/16 12:40:14;;;;;;;;;;;;;;;;;;;;;
2021/04/16 12:45:45;;;;;;;4.85;2.45;;;;;;;;;;4999102;28;20030;-77
2021/04/16 12:48:17;;;;;;;2.63;1.60;;;;;;;;;;4994712;28;21103;-77
2021/04/16 12:58:34;;;;;;;4.22;1.60;;;8.80;61.30;;;;;;4905344;29;20063;-79
2021/04/16 13:11:34;;;;;;;3.55;1.55;;;9.30;59.20;;;;;;5014034;28;20527;-78
2021/04/16 13:21:46;;;;;;;;;;;;;;;;;;;;;
2021/04/16 13:23:55;;;;;;;4.10;1.75;;;;;;;;;;4862135;29;20218;-80
2021/04/16 13:30:28;;;;;;;;;;;9.70;58.40;;;;;;4859152;29;20415;-77
2021/04/16 13:33:43;;;;;;;3.42;1.30;;;8.40;57.90;;;;;;4899056;29;19954;-77
2021/04/16 13:48:07;;;;;;;3.67;1.20;;;9.50;57.90;;;;;;4938339;28;20042;-76
2021/04/16 14:04:35;;;;;;;4.15;1.65;;;9.80;56.70;;;;;;5054386;23;20049;-84
2021/04/16 14:07:03;;;;;;;3.65;1.73;;;9.90;57.10;;;;;;5005368;28;20448;-84
2021/04/16 14:09:29;;;;;;;2.92;1.52;;;9.90;56.90;;;;;;4996929;28;20026;-87
2021/04/16 14:11:55;;;;;;;2.88;1.60;;;9.90;57.00;;;;;;4998629;28;20541;-84
2021/04/16 14:14:27;;;;;;;1.85;1.30;;;9.90;57.40;;;;;;4999332;28;20022;-84
2021/04/16 14:17:24;;;;;;;2.85;1.55;;;10.00;56.60;;;;;;4999774;28;20034;-86
2021/04/16 14:19:52;;;;;;;2.28;1.45;;;;;;;;;;4999638;28;20064;-82
2021/04/16 14:22:32;;;;;;;4.03;2.10;;;9.80;57.00;;;;;;4999903;28;20048;-83
2021/04/16 14:24:57;;;;;;;3.17;1.60;;;9.80;58.30;;;;;;4996997;28;20025;-83
2021/04/16 14:27:23;;;;;;;6.13;1.83;;;9.70;58.30;;;;;;4998005;28;20045;-86
2021/04/16 14:29:49;;;;;;;3.90;1.75;;;9.60;58.30;;;;;;4997789;28;20037;-86
2021/04/16 14:32:16;;;;;;;3.47;1.65;;;9.50;58.50;;;;;;4999218;28;20033;-86
2021/04/16 14:34:42;;;;;;;4.70;1.70;;;9.50;58.80;;;;;;4995394;28;20038;-85
2021/04/16 14:37:08;;;;;;;3.63;1.90;;;9.50;59.10;;;;;;4995788;28;20036;-87
2021/04/16 14:39:34;;;;;;;3.85;2.00;;;9.70;58.50;;;;;;5003102;28;20021;-89
2021/04/16 14:42:00;;;;;;;3.17;1.50;;;9.60;58.80;;;;;;5005439;28;20034;-87
2021/04/16 14:44:27;;;;;;;2.33;1.52;;;13.70;61.50;;;;;;4999411;28;20034;-82
2021/04/16 14:46:54;;;;;;;5.50;1.80;;;9.70;57.90;;;;;;4999373;28;20025;-83
2021/04/16 14:49:25;;;;;;;3.35;1.70;;;9.80;56.90;;;;;;5002663;28;20034;-85
2021/04/16 14:51:51;;;;;;;4.28;1.60;;;;;;;;;;4997000;28;20125;-86
2021/04/16 14:54:30;;;;;;;2.38;1.52;;;9.80;57.30;;;;;;4993528;28;20026;-85
2021/04/16 14:56:57;;;;;;;4.72;1.80;;;9.90;57.50;;;;;;4999093;28;20026;-87
2021/04/16 14:59:41;;;;;;;2.10;1.55;;;12.40;58.40;;;;;;5001867;28;20108;-85
2021/04/16 15:02:07;;;;;;;4.53;1.85;;;9.80;57.20;;;;;;5011367;28;20038;-84
2021/04/16 15:04:33;;;;;;;3.95;1.60;;;9.80;57.80;;;;;;4998305;28;20815;-88
2021/04/16 15:07:03;;;;;;;3.53;1.85;;;9.90;57.30;;;;;;5003739;28;20041;-84
2021/04/16 15:09:37;;;;;;;2.80;1.58;;;9.90;57.50;;;;;;5003785;28;20693;-86
2021/04/16 15:12:04;;;;;;;5.15;2.10;;;9.90;57.70;;;;;;5005576;28;20022;-86
2021/04/16 15:14:31;;;;;;;3.08;1.75;;;8.30;56.50;;;;;;5007647;28;20025;-87
2021/04/16 15:16:57;;;;;;;3.85;1.80;;;10.20;56.60;;;;;;5006479;28;20058;-84
2021/04/16 15:19:36;;;;;;;2.40;1.52;;;9.80;56.90;;;;;;4990733;28;20035;-83
2021/04/16 15:22:07;;;;;;;2.33;1.40;;;9.90;56.90;;;;;;5000746;28;20078;-86
2021/04/16 15:24:34;;;;;;;3.03;1.52;;;9.80;57.30;;;;;;5009582;28;20029;-81
2021/04/16 15:27:02;;;;;;;5.47;1.88;;;9.80;57.70;;;;;;5003350;28;20025;-85
2021/04/16 15:29:36;;;;;;;3.17;1.58;;;9.80;58.10;;;;;;5003408;28;20029;-82
2021/04/16 15:32:03;;;;;;;3.65;1.30;;;10.10;58.20;;;;;;5000418;28;20052;-86
2021/04/16 15:46:14;;;;;;;4.30;1.75;;;9.70;58.70;;;;;;5025433;28;20036;-84
2021/04/16 15:48:42;;;;;;;2.42;1.73;;;9.80;59.20;;;;;;5008621;28;20114;-83
2021/04/16 15:51:15;;;;;;;4.75;1.70;;;9.80;59.40;;;;;;5023461;28;20507;-86
2021/04/16 15:53:41;;;;;;;3.35;1.60;;;9.60;59.70;;;;;;5009443;28;20069;-86
2021/04/16 15:56:11;;;;;;;4.50;2.13;;;9.50;60.40;;;;;;5001004;28;20022;-87
2021/04/16 15:58:38;;;;;;;3.95;2.38;;;9.90;60.90;;;;;;5004628;28;20022;-83
2021/04/16 16:01:07;;;;;;;2.83;1.60;;;10.30;61.50;;;;;;5006153;28;20113;-85
2021/04/16 16:03:33;;;;;;;3.80;1.80;;;9.50;61.20;;;;;;5017861;28;20091;-80
2021/04/16 16:06:00;;;;;;;2.85;1.55;;;9.50;61.80;;;;;;5002657;28;20037;-87
2021/04/16 16:08:26;;;;;;;3.08;1.58;;;;;;;;;;5001358;28;20025;-83
2021/04/16 16:10:55;;;;;;;2.92;1.60;;;9.40;61.20;;;;;;5015602;28;20117;-84
2021/04/16 16:13:36;;;;;;;3.90;1.90;;;9.40;62.00;;;;;;5013343;28;20048;-83
2021/04/16 16:16:06;;;;;;;2.25;1.45;;;8.60;62.10;;;;;;5003179;28;20026;-84
2021/04/16 16:18:36;;;;;;;2.95;1.75;;;9.30;62.60;;;;;;5000675;28;20080;-85
2021/04/16 16:21:02;;;;;;;4.03;1.77;;;10.10;63.20;;;;;;5022375;28;20026;-84
2021/04/16 16:23:28;;;;;;;3.13;1.50;;;9.30;62.80;;;;;;5010934;28;20037;-87
2021/04/16 16:25:54;;;;;;;4.18;1.80;;;9.30;62.70;;;;;;5006583;28;20450;-84
2021/04/16 16:28:23;;;;;;;2.50;1.50;;;9.30;63.30;;;;;;5001174;28;20025;-86
2021/04/16 16:30:49;;;;;;;3.80;1.65;;;9.40;63.10;;;;;;5022483;28;20037;-84
2021/04/16 16:33:16;;;;;;;3.58;1.83;;;9.50;63.20;;;;;;5001647;28;20482;-83
2021/04/16 16:35:45;;;;;;;5.13;1.60;;;9.30;63.40;;;;;;5009504;28;20057;-84
2021/04/16 16:38:12;;;;;;;3.63;1.83;;;9.80;63.30;;;;;;5006271;28;20076;-85
2021/04/16 16:40:42;;;;;;;2.45;1.65;;;9.30;63.00;;;;;;5018493;28;20026;-81
2021/04/16 16:43:25;;;;;;;2.95;1.90;;;9.30;62.90;;;;;;5003286;28;20030;-81
2021/04/16 16:45:56;;;;;;;5.85;2.10;;;9.30;63.00;;;;;;5005729;28;20044;-85
2021/04/16 16:48:22;;;;;;;5.22;1.75;;;9.20;63.60;;;;;;5003932;28;20041;-86
2021/04/16 16:50:48;;;;;;;3.05;1.80;;;9.20;64.00;;;;;;5004814;28;20034;-87
2021/04/16 16:53:15;;;;;;;3.30;2.00;;;10.40;64.70;;;;;;5003828;28;20038;-83